sensor_id;sensor_type;location;lat;lon;timestamp;P1;durP1;ratioP1;P2;durP2;ratioP2
595;SDS011;19946;49.306;11.350;2023-08-07T00:00:31;0.10;;;0.10;;
595;SDS011;19946;49.306;11.350;2023-08-07T00:03:31;0.00;;;0.00;;
595;SDS011;19946;49.306;11.350;2023-08-07T00:06:32;0.00;;;0.00;;
595;SDS011;19946;49.306;11.350;2023-08-07T00:09:32;0.10;;;0.10;;
595;SDS011;19946;49.306;11.350;2023-08-07T00:12:32;0.00;;;0.00;;
595;SDS011;19946;49.306;11.350;2023-08-07T00:15:32;0.07;;;0.07;;
595;SDS011;19946;49.306;11.350;2023-08-07T00:18:35;0.10;;;0.10;;
595;SDS011;19946;49.306;11.350;2023-08-07T00:21:35;0.00;;;0.00;;
595;SDS011;19946;49.306;11.350;2023-08-07T00:24:36;0.10;;;0.10;;
595;SDS011;19946;49.306;11.350;2023-08-07T00:27:36;0.10;;;0.10;;
595;SDS011;19946;49.306;11.350;2023-08-07T00:30:36;0.00;;;0.00;;
595;SDS011;19946;49.306;11.350;2023-08-07T00:33:36;0.00;;;0.00;;
595;SDS011;19946;49.306;11.350;2023-08-07T00:36:37;0.00;;;0.00;;
595;SDS011;19946;49.306;11.350;2023-08-07T00:39:37;0.00;;;0.00;;
595;SDS011;19946;49.306;11.350;2023-08-07T00:42:37;0.00;;;0.00;;
595;SDS011;19946;49.306;11.350;2023-08-07T00:45:40;0.00;;;0.00;;
595;SDS011;19946;49.306;11.350;2023-08-07T00:48:41;0.10;;;0.10;;
595;SDS011;19946;49.306;11.350;2023-08-07T00:51:41;0.00;;;0.00;;
595;SDS011;19946;49.306;11.350;2023-08-07T00:54:42;0.10;;;0.10;;
595;SDS011;19946;49.306;11.350;2023-08-07T00:57:42;0.00;;;0.00;;
595;SDS011;19946;49.306;11.350;2023-08-07T01:00:43;0.10;;;0.10;;
595;SDS011;19946;49.306;11.350;2023-08-07T01:03:43;0.00;;;0.00;;
595;SDS011;19946;49.306;11.350;2023-08-07T01:06:43;0.10;;;0.10;;
595;SDS011;19946;49.306;11.350;2023-08-07T01:09:43;0.03;;;0.03;;
595;SDS011;19946;49.306;11.350;2023-08-07T01:12:54;0.10;;;0.10;;
595;SDS011;19946;49.306;11.350;2023-08-07T01:15:56;0.00;;;0.00;;
595;SDS011;19946;49.306;11.350;2023-08-07T01:18:58;0.00;;;0.00;;
595;SDS011;19946;49.306;11.350;2023-08-07T01:22:06;0.00;;;0.00;;
595;SDS011;19946;49.306;11.350;2023-08-07T01:25:08;0.00;;;0.00;;
595;SDS011;19946;49.306;11.350;2023-08-07T01:31:18;0.00;;;0.00;;
595;SDS011;19946;49.306;11.350;2023-08-07T01:34:20;0.00;;;0.00;;
595;SDS011;19946;49.306;11.350;2023-08-07T01:37:22;0.00;;;0.00;;
595;SDS011;19946;49.306;11.350;2023-08-07T01:40:23;0.00;;;0.00;;
595;SDS011;19946;49.306;11.350;2023-08-07T01:43:23;0.00;;;0.00;;
595;SDS011;19946;49.306;11.350;2023-08-07T01:46:24;0.00;;;0.00;;
595;SDS011;19946;49.306;11.350;2023-08-07T01:49:24;0.00;;;0.00;;
595;SDS011;19946;49.306;11.350;2023-08-07T01:52:24;0.10;;;0.10;;
595;SDS011;19946;49.306;11.350;2023-08-07T01:55:24;0.10;;;0.10;;
595;SDS011;19946;49.306;11.350;2023-08-07T01:58:25;0.00;;;0.00;;
595;SDS011;19946;49.306;11.350;2023-08-07T02:01:26;0.10;;;0.10;;
595;SDS011;19946;49.306;11.350;2023-08-07T02:04:26;0.00;;;0.00;;
595;SDS011;19946;49.306;11.350;2023-08-07T02:07:27;0.10;;;0.10;;
595;SDS011;19946;49.306;11.350;2023-08-07T02:10:27;0.10;;;0.10;;
595;SDS011;19946;49.306;11.350;2023-08-07T02:13:28;0.10;;;0.10;;
595;SDS011;19946;49.306;11.350;2023-08-07T02:16:28;0.00;;;0.00;;
595;SDS011;19946;49.306;11.350;2023-08-07T02:19:28;0.00;;;0.00;;
595;SDS011;19946;49.306;11.350;2023-08-07T02:22:29;0.03;;;0.03;;
595;SDS011;19946;49.306;11.350;2023-08-07T02:25:29;0.10;;;0.10;;
595;SDS011;19946;49.306;11.350;2023-08-07T02:28:30;0.00;;;0.00;;
595;SDS011;19946;49.306;11.350;2023-08-07T02:31:30;0.10;;;0.10;;
595;SDS011;19946;49.306;11.350;2023-08-07T02:34:30;0.10;;;0.10;;
595;SDS011;19946;49.306;11.350;2023-08-07T02:37:31;0.10;;;0.10;;
595;SDS011;19946;49.306;11.350;2023-08-07T02:40:32;0.00;;;0.00;;
595;SDS011;19946;49.306;11.350;2023-08-07T02:43:33;0.00;;;0.00;;
595;SDS011;19946;49.306;11.350;2023-08-07T02:46:34;0.00;;;0.00;;
595;SDS011;19946;49.306;11.350;2023-08-07T02:49:36;0.00;;;0.00;;
595;SDS011;19946;49.306;11.350;2023-08-07T02:52:36;0.10;;;0.10;;
595;SDS011;19946;49.306;11.350;2023-08-07T02:55:36;0.10;;;0.10;;
595;SDS011;19946;49.306;11.350;2023-08-07T02:58:36;0.07;;;0.07;;
595;SDS011;19946;49.306;11.350;2023-08-07T03:01:37;0.10;;;0.10;;
595;SDS011;19946;49.306;11.350;2023-08-07T03:04:37;0.10;;;0.10;;
595;SDS011;19946;49.306;11.350;2023-08-07T03:07:37;0.10;;;0.10;;
595;SDS011;19946;49.306;11.350;2023-08-07T03:10:37;0.10;;;0.10;;
595;SDS011;19946;49.306;11.350;2023-08-07T03:13:37;0.10;;;0.10;;
595;SDS011;19946;49.306;11.350;2023-08-07T03:16:38;0.10;;;0.10;;
595;SDS011;19946;49.306;11.350;2023-08-07T03:19:39;0.10;;;0.10;;
595;SDS011;19946;49.306;11.350;2023-08-07T03:22:40;0.00;;;0.00;;
595;SDS011;19946;49.306;11.350;2023-08-07T03:25:40;0.10;;;0.10;;
595;SDS011;19946;49.306;11.350;2023-08-07T03:28:40;0.10;;;0.10;;
595;SDS011;19946;49.306;11.350;2023-08-07T03:31:41;0.10;;;0.10;;
595;SDS011;19946;49.306;11.350;2023-08-07T03:34:41;0.00;;;0.00;;
595;SDS011;19946;49.306;11.350;2023-08-07T03:37:42;0.10;;;0.10;;
595;SDS011;19946;49.306;11.350;2023-08-07T03:40:42;0.10;;;0.10;;
595;SDS011;19946;49.306;11.350;2023-08-07T03:43:43;0.10;;;0.10;;
595;SDS011;19946;49.306;11.350;2023-08-07T03:46:44;0.10;;;0.10;;
595;SDS011;19946;49.306;11.350;2023-08-07T03:49:44;0.00;;;0.00;;
595;SDS011;19946;49.306;11.350;2023-08-07T03:52:44;0.10;;;0.10;;
595;SDS011;19946;49.306;11.350;2023-08-07T03:55:49;0.10;;;0.10;;
595;SDS011;19946;49.306;11.350;2023-08-07T03:58:49;0.10;;;0.10;;
595;SDS011;19946;49.306;11.350;2023-08-07T04:01:51;0.10;;;0.10;;
595;SDS011;19946;49.306;11.350;2023-08-07T04:04:51;0.10;;;0.10;;
595;SDS011;19946;49.306;11.350;2023-08-07T04:07:52;0.10;;;0.10;;
595;SDS011;19946;49.306;11.350;2023-08-07T04:10:57;0.10;;;0.10;;
595;SDS011;19946;49.306;11.350;2023-08-07T04:13:58;0.10;;;0.10;;
595;SDS011;19946;49.306;11.350;2023-08-07T04:16:58;0.10;;;0.10;;
595;SDS011;19946;49.306;11.350;2023-08-07T04:20:00;0.10;;;0.10;;
595;SDS011;19946;49.306;11.350;2023-08-07T04:23:01;0.10;;;0.10;;
595;SDS011;19946;49.306;11.350;2023-08-07T04:26:01;0.10;;;0.10;;
595;SDS011;19946;49.306;11.350;2023-08-07T04:29:02;0.10;;;0.10;;
595;SDS011;19946;49.306;11.350;2023-08-07T04:32:04;0.17;;;0.17;;
595;SDS011;19946;49.306;11.350;2023-08-07T04:35:04;0.07;;;0.07;;
595;SDS011;19946;49.306;11.350;2023-08-07T04:38:05;0.10;;;0.10;;
595;SDS011;19946;49.306;11.350;2023-08-07T04:41:05;0.10;;;0.10;;
595;SDS011;19946;49.306;11.350;2023-08-07T04:44:05;0.00;;;0.00;;
595;SDS011;19946;49.306;11.350;2023-08-07T04:47:05;0.10;;;0.10;;
595;SDS011;19946;49.306;11.350;2023-08-07T04:50:06;0.10;;;0.10;;
595;SDS011;19946;49.306;11.350;2023-08-07T04:53:06;0.10;;;0.10;;
595;SDS011;19946;49.306;11.350;2023-08-07T04:56:06;0.10;;;0.10;;
595;SDS011;19946;49.306;11.350;2023-08-07T04:59:07;0.10;;;0.10;;
595;SDS011;19946;49.306;11.350;2023-08-07T05:02:07;0.10;;;0.10;;
595;SDS011;19946;49.306;11.350;2023-08-07T05:05:08;0.10;;;0.10;;
595;SDS011;19946;49.306;11.350;2023-08-07T05:08:09;0.10;;;0.10;;
595;SDS011;19946;49.306;11.350;2023-08-07T05:11:09;0.10;;;0.10;;
595;SDS011;19946;49.306;11.350;2023-08-07T05:14:10;0.10;;;0.10;;
595;SDS011;19946;49.306;11.350;2023-08-07T05:17:10;0.10;;;0.10;;
595;SDS011;19946;49.306;11.350;2023-08-07T05:20:10;0.10;;;0.10;;
595;SDS011;19946;49.306;11.350;2023-08-07T05:23:10;0.10;;;0.10;;
595;SDS011;19946;49.306;11.350;2023-08-07T05:26:11;0.10;;;0.10;;
595;SDS011;19946;49.306;11.350;2023-08-07T05:29:11;0.10;;;0.10;;
595;SDS011;19946;49.306;11.350;2023-08-07T05:32:12;0.10;;;0.10;;
595;SDS011;19946;49.306;11.350;2023-08-07T05:35:12;0.10;;;0.10;;
595;SDS011;19946;49.306;11.350;2023-08-07T05:38:12;0.10;;;0.10;;
595;SDS011;19946;49.306;11.350;2023-08-07T05:41:12;0.10;;;0.10;;
595;SDS011;19946;49.306;11.350;2023-08-07T05:44:13;0.10;;;0.10;;
595;SDS011;19946;49.306;11.350;2023-08-07T05:47:13;0.10;;;0.10;;
595;SDS011;19946;49.306;11.350;2023-08-07T05:50:13;0.10;;;0.10;;
595;SDS011;19946;49.306;11.350;2023-08-07T05:53:13;0.10;;;0.10;;
595;SDS011;19946;49.306;11.350;2023-08-07T05:56:13;0.10;;;0.10;;
595;SDS011;19946;49.306;11.350;2023-08-07T05:59:14;0.10;;;0.10;;
595;SDS011;19946;49.306;11.350;2023-08-07T06:02:15;0.10;;;0.10;;
595;SDS011;19946;49.306;11.350;2023-08-07T06:05:15;0.10;;;0.10;;
595;SDS011;19946;49.306;11.350;2023-08-07T06:08:16;0.13;;;0.13;;
595;SDS011;19946;49.306;11.350;2023-08-07T06:11:16;0.10;;;0.10;;
595;SDS011;19946;49.306;11.350;2023-08-07T06:14:17;0.10;;;0.10;;
595;SDS011;19946;49.306;11.350;2023-08-07T06:17:17;0.10;;;0.10;;
595;SDS011;19946;49.306;11.350;2023-08-07T06:20:17;0.10;;;0.10;;
595;SDS011;19946;49.306;11.350;2023-08-07T06:23:17;0.10;;;0.10;;
595;SDS011;19946;49.306;11.350;2023-08-07T06:26:18;0.10;;;0.10;;
595;SDS011;19946;49.306;11.350;2023-08-07T06:29:18;0.10;;;0.10;;
595;SDS011;19946;49.306;11.350;2023-08-07T06:32:18;0.10;;;0.10;;
595;SDS011;19946;49.306;11.350;2023-08-07T06:35:18;0.10;;;0.10;;
595;SDS011;19946;49.306;11.350;2023-08-07T06:38:19;0.10;;;0.10;;
595;SDS011;19946;49.306;11.350;2023-08-07T06:41:19;0.10;;;0.10;;
595;SDS011;19946;49.306;11.350;2023-08-07T06:44:19;0.10;;;0.10;;
595;SDS011;19946;49.306;11.350;2023-08-07T06:47:20;0.20;;;0.20;;
595;SDS011;19946;49.306;11.350;2023-08-07T06:50:20;0.10;;;0.10;;
595;SDS011;19946;49.306;11.350;2023-08-07T06:53:20;0.10;;;0.10;;
595;SDS011;19946;49.306;11.350;2023-08-07T06:56:21;0.10;;;0.10;;
595;SDS011;19946;49.306;11.350;2023-08-07T06:59:21;0.20;;;0.20;;
595;SDS011;19946;49.306;11.350;2023-08-07T07:02:21;0.20;;;0.20;;
595;SDS011;19946;49.306;11.350;2023-08-07T07:05:21;0.20;;;0.20;;
595;SDS011;19946;49.306;11.350;2023-08-07T07:08:22;0.20;;;0.20;;
595;SDS011;19946;49.306;11.350;2023-08-07T07:11:23;0.10;;;0.10;;
595;SDS011;19946;49.306;11.350;2023-08-07T07:14:24;0.27;;;0.27;;
595;SDS011;19946;49.306;11.350;2023-08-07T07:17:24;0.20;;;0.20;;
595;SDS011;19946;49.306;11.350;2023-08-07T07:20:25;0.10;;;0.10;;
595;SDS011;19946;49.306;11.350;2023-08-07T07:23:26;0.20;;;0.20;;
595;SDS011;19946;49.306;11.350;2023-08-07T07:26:27;0.10;;;0.10;;
595;SDS011;19946;49.306;11.350;2023-08-07T07:29:27;0.10;;;0.10;;
595;SDS011;19946;49.306;11.350;2023-08-07T07:32:27;0.10;;;0.10;;
595;SDS011;19946;49.306;11.350;2023-08-07T07:35:27;0.10;;;0.10;;
595;SDS011;19946;49.306;11.350;2023-08-07T07:38:28;0.20;;;0.20;;
595;SDS011;19946;49.306;11.350;2023-08-07T07:41:28;0.10;;;0.10;;
595;SDS011;19946;49.306;11.350;2023-08-07T07:44:28;0.10;;;0.10;;
595;SDS011;19946;49.306;11.350;2023-08-07T07:47:29;0.10;;;0.10;;
595;SDS011;19946;49.306;11.350;2023-08-07T07:50:29;0.10;;;0.10;;
595;SDS011;19946;49.306;11.350;2023-08-07T07:53:29;0.20;;;0.20;;
595;SDS011;19946;49.306;11.350;2023-08-07T07:56:30;0.20;;;0.20;;
595;SDS011;19946;49.306;11.350;2023-08-07T07:59:30;0.20;;;0.20;;
595;SDS011;19946;49.306;11.350;2023-08-07T08:02:30;0.10;;;0.10;;
595;SDS011;19946;49.306;11.350;2023-08-07T08:05:30;0.10;;;0.10;;
595;SDS011;19946;49.306;11.350;2023-08-07T08:08:31;0.20;;;0.20;;
595;SDS011;19946;49.306;11.350;2023-08-07T08:11:32;0.20;;;0.20;;
595;SDS011;19946;49.306;11.350;2023-08-07T08:14:32;0.20;;;0.20;;
595;SDS011;19946;49.306;11.350;2023-08-07T08:17:32;0.20;;;0.20;;
595;SDS011;19946;49.306;11.350;2023-08-07T08:20:32;0.30;;;0.30;;
595;SDS011;19946;49.306;11.350;2023-08-07T08:23:33;0.30;;;0.30;;
595;SDS011;19946;49.306;11.350;2023-08-07T08:26:33;0.40;;;0.40;;
595;SDS011;19946;49.306;11.350;2023-08-07T08:29:33;0.40;;;0.40;;
595;SDS011;19946;49.306;11.350;2023-08-07T08:32:33;0.30;;;0.30;;
595;SDS011;19946;49.306;11.350;2023-08-07T08:35:34;0.20;;;0.20;;
595;SDS011;19946;49.306;11.350;2023-08-07T08:38:34;0.30;;;0.30;;
595;SDS011;19946;49.306;11.350;2023-08-07T08:41:35;0.20;;;0.20;;
595;SDS011;19946;49.306;11.350;2023-08-07T08:44:35;0.30;;;0.30;;
595;SDS011;19946;49.306;11.350;2023-08-07T08:47:37;0.30;;;0.30;;
595;SDS011;19946;49.306;11.350;2023-08-07T08:50:38;0.30;;;0.30;;
595;SDS011;19946;49.306;11.350;2023-08-07T08:53:39;0.30;;;0.30;;
595;SDS011;19946;49.306;11.350;2023-08-07T08:56:39;0.40;;;0.40;;
595;SDS011;19946;49.306;11.350;2023-08-07T08:59:40;0.40;;;0.40;;
595;SDS011;19946;49.306;11.350;2023-08-07T09:02:41;0.30;;;0.30;;
595;SDS011;19946;49.306;11.350;2023-08-07T09:05:41;0.40;;;0.40;;
595;SDS011;19946;49.306;11.350;2023-08-07T09:08:42;0.77;;;0.77;;
595;SDS011;19946;49.306;11.350;2023-08-07T09:11:42;0.40;;;0.40;;
595;SDS011;19946;49.306;11.350;2023-08-07T09:14:43;0.50;;;0.50;;
595;SDS011;19946;49.306;11.350;2023-08-07T09:17:44;0.50;;;0.50;;
595;SDS011;19946;49.306;11.350;2023-08-07T09:20:46;0.60;;;0.60;;
595;SDS011;19946;49.306;11.350;2023-08-07T09:23:46;0.70;;;0.70;;
595;SDS011;19946;49.306;11.350;2023-08-07T09:26:47;0.60;;;0.60;;
595;SDS011;19946;49.306;11.350;2023-08-07T09:29:47;0.80;;;0.80;;
595;SDS011;19946;49.306;11.350;2023-08-07T09:32:49;0.97;;;0.97;;
595;SDS011;19946;49.306;11.350;2023-08-07T09:35:49;0.60;;;0.60;;
595;SDS011;19946;49.306;11.350;2023-08-07T09:38:50;0.50;;;0.50;;
595;SDS011;19946;49.306;11.350;2023-08-07T09:41:53;0.50;;;0.50;;
595;SDS011;19946;49.306;11.350;2023-08-07T09:44:53;0.50;;;0.50;;
595;SDS011;19946;49.306;11.350;2023-08-07T09:48:00;0.60;;;0.60;;
595;SDS011;19946;49.306;11.350;2023-08-07T09:51:00;0.60;;;0.60;;
595;SDS011;19946;49.306;11.350;2023-08-07T09:54:02;0.60;;;0.60;;
595;SDS011;19946;49.306;11.350;2023-08-07T09:57:03;0.60;;;0.60;;
595;SDS011;19946;49.306;11.350;2023-08-07T10:00:07;0.60;;;0.60;;
595;SDS011;19946;49.306;11.350;2023-08-07T10:03:12;0.60;;;0.60;;
595;SDS011;19946;49.306;11.350;2023-08-07T10:06:13;0.60;;;0.60;;
595;SDS011;19946;49.306;11.350;2023-08-07T10:09:17;0.60;;;0.60;;
595;SDS011;19946;49.306;11.350;2023-08-07T10:12:17;0.80;;;0.80;;
595;SDS011;19946;49.306;11.350;2023-08-07T10:15:17;0.90;;;0.90;;
595;SDS011;19946;49.306;11.350;2023-08-07T10:18:18;0.60;;;0.60;;
595;SDS011;19946;49.306;11.350;2023-08-07T10:21:18;0.40;;;0.40;;
595;SDS011;19946;49.306;11.350;2023-08-07T10:24:19;0.70;;;0.70;;
595;SDS011;19946;49.306;11.350;2023-08-07T10:27:20;0.63;;;0.63;;
595;SDS011;19946;49.306;11.350;2023-08-07T10:30:20;0.70;;;0.70;;
595;SDS011;19946;49.306;11.350;2023-08-07T10:33:22;0.40;;;0.40;;
595;SDS011;19946;49.306;11.350;2023-08-07T10:36:26;0.53;;;0.53;;
595;SDS011;19946;49.306;11.350;2023-08-07T10:39:31;0.53;;;0.53;;
595;SDS011;19946;49.306;11.350;2023-08-07T10:45:51;0.50;;;0.50;;
595;SDS011;19946;49.306;11.350;2023-08-07T10:48:53;0.50;;;0.50;;
595;SDS011;19946;49.306;11.350;2023-08-07T10:51:55;0.70;;;0.70;;
595;SDS011;19946;49.306;11.350;2023-08-07T10:54:55;0.90;;;0.90;;
595;SDS011;19946;49.306;11.350;2023-08-07T10:57:55;0.90;;;0.90;;
595;SDS011;19946;49.306;11.350;2023-08-07T11:04:15;0.73;;;0.73;;
595;SDS011;19946;49.306;11.350;2023-08-07T11:07:24;1.27;;;1.27;;
595;SDS011;19946;49.306;11.350;2023-08-07T11:10:25;1.10;;;1.10;;
595;SDS011;19946;49.306;11.350;2023-08-07T11:13:25;1.00;;;1.00;;
595;SDS011;19946;49.306;11.350;2023-08-07T11:16:29;1.10;;;1.10;;
595;SDS011;19946;49.306;11.350;2023-08-07T11:19:30;0.80;;;0.80;;
595;SDS011;19946;49.306;11.350;2023-08-07T11:22:30;0.90;;;0.90;;
595;SDS011;19946;49.306;11.350;2023-08-07T11:25:30;0.90;;;0.90;;
595;SDS011;19946;49.306;11.350;2023-08-07T11:28:31;0.70;;;0.70;;
595;SDS011;19946;49.306;11.350;2023-08-07T11:31:31;1.30;;;1.30;;
595;SDS011;19946;49.306;11.350;2023-08-07T11:34:32;1.80;;;1.80;;
595;SDS011;19946;49.306;11.350;2023-08-07T11:37:32;2.27;;;2.27;;
595;SDS011;19946;49.306;11.350;2023-08-07T11:40:32;2.10;;;2.10;;
595;SDS011;19946;49.306;11.350;2023-08-07T11:43:33;3.23;;;3.23;;
595;SDS011;19946;49.306;11.350;2023-08-07T11:46:33;2.23;;;2.23;;
595;SDS011;19946;49.306;11.350;2023-08-07T11:49:34;1.90;;;1.90;;
595;SDS011;19946;49.306;11.350;2023-08-07T11:52:34;2.90;;;2.90;;
595;SDS011;19946;49.306;11.350;2023-08-07T11:55:34;1.90;;;1.90;;
595;SDS011;19946;49.306;11.350;2023-08-07T11:58:35;2.60;;;2.60;;
595;SDS011;19946;49.306;11.350;2023-08-07T12:01:37;2.63;;;2.63;;
595;SDS011;19946;49.306;11.350;2023-08-07T12:04:37;2.30;;;2.30;;
595;SDS011;19946;49.306;11.350;2023-08-07T12:07:38;2.63;;;2.63;;
595;SDS011;19946;49.306;11.350;2023-08-07T12:10:39;3.00;;;3.00;;
595;SDS011;19946;49.306;11.350;2023-08-07T12:13:40;3.70;;;3.70;;
595;SDS011;19946;49.306;11.350;2023-08-07T12:16:43;3.30;;;3.30;;
595;SDS011;19946;49.306;11.350;2023-08-07T12:19:43;4.30;;;4.30;;
595;SDS011;19946;49.306;11.350;2023-08-07T12:22:46;3.80;;;3.80;;
595;SDS011;19946;49.306;11.350;2023-08-07T12:25:47;4.63;;;4.63;;
595;SDS011;19946;49.306;11.350;2023-08-07T12:28:47;6.63;;;6.53;;
595;SDS011;19946;49.306;11.350;2023-08-07T12:31:48;4.97;;;4.97;;
595;SDS011;19946;49.306;11.350;2023-08-07T12:34:48;3.30;;;3.30;;
595;SDS011;19946;49.306;11.350;2023-08-07T12:37:50;2.93;;;2.93;;
595;SDS011;19946;49.306;11.350;2023-08-07T12:40:50;3.10;;;3.10;;
595;SDS011;19946;49.306;11.350;2023-08-07T12:43:50;3.20;;;3.20;;
595;SDS011;19946;49.306;11.350;2023-08-07T12:46:51;2.23;;;2.23;;
595;SDS011;19946;49.306;11.350;2023-08-07T12:49:51;1.80;;;1.80;;
595;SDS011;19946;49.306;11.350;2023-08-07T12:52:51;1.97;;;1.97;;
595;SDS011;19946;49.306;11.350;2023-08-07T12:55:51;1.70;;;1.70;;
595;SDS011;19946;49.306;11.350;2023-08-07T12:58:52;3.27;;;3.27;;
595;SDS011;19946;49.306;11.350;2023-08-07T13:01:52;2.07;;;2.07;;
595;SDS011;19946;49.306;11.350;2023-08-07T13:04:53;1.87;;;1.87;;
595;SDS011;19946;49.306;11.350;2023-08-07T13:07:54;1.80;;;1.80;;
595;SDS011;19946;49.306;11.350;2023-08-07T13:10:56;1.70;;;1.70;;
595;SDS011;19946;49.306;11.350;2023-08-07T13:13:56;2.57;;;2.57;;
595;SDS011;19946;49.306;11.350;2023-08-07T13:16:56;2.93;;;2.93;;
595;SDS011;19946;49.306;11.350;2023-08-07T13:19:57;3.63;;;3.63;;
595;SDS011;19946;49.306;11.350;2023-08-07T13:22:57;4.37;;;4.37;;
595;SDS011;19946;49.306;11.350;2023-08-07T13:25:58;4.97;;;4.97;;
595;SDS011;19946;49.306;11.350;2023-08-07T13:28:58;5.20;;;5.20;;
595;SDS011;19946;49.306;11.350;2023-08-07T13:31:58;4.60;;;4.60;;
595;SDS011;19946;49.306;11.350;2023-08-07T13:34:59;2.53;;;2.53;;
595;SDS011;19946;49.306;11.350;2023-08-07T13:37:59;2.50;;;2.50;;
595;SDS011;19946;49.306;11.350;2023-08-07T13:40:59;1.50;;;1.50;;
595;SDS011;19946;49.306;11.350;2023-08-07T13:44:00;1.50;;;1.50;;
595;SDS011;19946;49.306;11.350;2023-08-07T13:47:00;1.80;;;1.80;;
595;SDS011;19946;49.306;11.350;2023-08-07T13:50:00;1.43;;;1.43;;
595;SDS011;19946;49.306;11.350;2023-08-07T13:53:02;1.60;;;1.60;;
595;SDS011;19946;49.306;11.350;2023-08-07T13:56:02;1.30;;;1.30;;
595;SDS011;19946;49.306;11.350;2023-08-07T13:59:03;0.70;;;0.70;;
595;SDS011;19946;49.306;11.350;2023-08-07T14:02:03;0.70;;;0.70;;
595;SDS011;19946;49.306;11.350;2023-08-07T14:05:03;0.80;;;0.80;;
595;SDS011;19946;49.306;11.350;2023-08-07T14:08:04;0.70;;;0.70;;
595;SDS011;19946;49.306;11.350;2023-08-07T14:11:04;0.90;;;0.90;;
595;SDS011;19946;49.306;11.350;2023-08-07T14:14:05;1.10;;;1.10;;
595;SDS011;19946;49.306;11.350;2023-08-07T14:17:05;1.50;;;1.50;;
595;SDS011;19946;49.306;11.350;2023-08-07T14:20:06;1.40;;;1.40;;
595;SDS011;19946;49.306;11.350;2023-08-07T14:23:06;1.40;;;1.40;;
595;SDS011;19946;49.306;11.350;2023-08-07T14:26:07;1.30;;;1.30;;
595;SDS011;19946;49.306;11.350;2023-08-07T14:29:07;1.40;;;1.40;;
595;SDS011;19946;49.306;11.350;2023-08-07T14:32:07;1.70;;;1.70;;
595;SDS011;19946;49.306;11.350;2023-08-07T14:35:08;1.80;;;1.80;;
595;SDS011;19946;49.306;11.350;2023-08-07T14:38:08;1.27;;;1.27;;
595;SDS011;19946;49.306;11.350;2023-08-07T14:41:08;1.57;;;1.57;;
595;SDS011;19946;49.306;11.350;2023-08-07T14:44:08;1.90;;;1.90;;
595;SDS011;19946;49.306;11.350;2023-08-07T14:47:09;1.57;;;1.57;;
595;SDS011;19946;49.306;11.350;2023-08-07T14:50:09;1.70;;;1.70;;
595;SDS011;19946;49.306;11.350;2023-08-07T14:53:09;1.60;;;1.60;;
595;SDS011;19946;49.306;11.350;2023-08-07T14:56:09;1.97;;;1.97;;
595;SDS011;19946;49.306;11.350;2023-08-07T14:59:10;1.50;;;1.50;;
595;SDS011;19946;49.306;11.350;2023-08-07T15:02:10;1.90;;;1.90;;
595;SDS011;19946;49.306;11.350;2023-08-07T15:05:10;2.70;;;2.70;;
595;SDS011;19946;49.306;11.350;2023-08-07T15:08:11;2.50;;;2.50;;
595;SDS011;19946;49.306;11.350;2023-08-07T15:11:11;2.90;;;2.90;;
595;SDS011;19946;49.306;11.350;2023-08-07T15:14:11;3.20;;;3.20;;
595;SDS011;19946;49.306;11.350;2023-08-07T15:17:11;2.50;;;2.50;;
595;SDS011;19946;49.306;11.350;2023-08-07T15:20:12;2.80;;;2.80;;
595;SDS011;19946;49.306;11.350;2023-08-07T15:23:12;3.90;;;3.90;;
595;SDS011;19946;49.306;11.350;2023-08-07T15:26:12;4.43;;;4.43;;
595;SDS011;19946;49.306;11.350;2023-08-07T15:29:13;3.50;;;3.50;;
595;SDS011;19946;49.306;11.350;2023-08-07T15:32:13;3.50;;;3.50;;
595;SDS011;19946;49.306;11.350;2023-08-07T15:35:13;3.20;;;3.20;;
595;SDS011;19946;49.306;11.350;2023-08-07T15:38:14;3.77;;;3.77;;
595;SDS011;19946;49.306;11.350;2023-08-07T15:41:14;3.70;;;3.70;;
595;SDS011;19946;49.306;11.350;2023-08-07T15:44:14;5.23;;;5.23;;
595;SDS011;19946;49.306;11.350;2023-08-07T15:47:14;4.23;;;4.23;;
595;SDS011;19946;49.306;11.350;2023-08-07T15:50:16;3.90;;;3.90;;
595;SDS011;19946;49.306;11.350;2023-08-07T15:53:16;3.30;;;3.30;;
595;SDS011;19946;49.306;11.350;2023-08-07T15:56:17;4.30;;;4.30;;
595;SDS011;19946;49.306;11.350;2023-08-07T15:59:17;6.23;;;6.13;;
595;SDS011;19946;49.306;11.350;2023-08-07T16:02:17;4.50;;;4.50;;
595;SDS011;19946;49.306;11.350;2023-08-07T16:05:17;3.40;;;3.40;;
595;SDS011;19946;49.306;11.350;2023-08-07T16:08:20;4.00;;;4.00;;
595;SDS011;19946;49.306;11.350;2023-08-07T16:11:21;5.43;;;5.43;;
595;SDS011;19946;49.306;11.350;2023-08-07T16:14:21;4.40;;;4.40;;
595;SDS011;19946;49.306;11.350;2023-08-07T16:17:23;3.80;;;3.80;;
595;SDS011;19946;49.306;11.350;2023-08-07T16:20:23;3.27;;;3.27;;
595;SDS011;19946;49.306;11.350;2023-08-07T16:23:23;2.90;;;2.90;;
595;SDS011;19946;49.306;11.350;2023-08-07T16:26:24;3.70;;;3.70;;
595;SDS011;19946;49.306;11.350;2023-08-07T16:29:24;3.57;;;3.57;;
595;SDS011;19946;49.306;11.350;2023-08-07T16:32:24;3.70;;;3.70;;
595;SDS011;19946;49.306;11.350;2023-08-07T16:35:24;3.73;;;3.73;;
595;SDS011;19946;49.306;11.350;2023-08-07T16:38:25;3.70;;;3.70;;
595;SDS011;19946;49.306;11.350;2023-08-07T16:41:25;4.20;;;4.20;;
595;SDS011;19946;49.306;11.350;2023-08-07T16:44:25;3.83;;;3.83;;
595;SDS011;19946;49.306;11.350;2023-08-07T16:47:25;2.90;;;2.90;;
595;SDS011;19946;49.306;11.350;2023-08-07T16:50:26;2.60;;;2.60;;
595;SDS011;19946;49.306;11.350;2023-08-07T16:53:27;2.90;;;2.90;;
595;SDS011;19946;49.306;11.350;2023-08-07T16:56:27;3.67;;;3.67;;
595;SDS011;19946;49.306;11.350;2023-08-07T16:59:28;3.90;;;3.90;;
595;SDS011;19946;49.306;11.350;2023-08-07T17:02:29;4.60;;;4.60;;
595;SDS011;19946;49.306;11.350;2023-08-07T17:05:29;4.40;;;4.40;;
595;SDS011;19946;49.306;11.350;2023-08-07T17:08:31;5.50;;;5.50;;
595;SDS011;19946;49.306;11.350;2023-08-07T17:11:31;6.40;;;6.30;;
595;SDS011;19946;49.306;11.350;2023-08-07T17:14:31;6.27;;;6.17;;
595;SDS011;19946;49.306;11.350;2023-08-07T17:17:31;5.80;;;5.70;;
595;SDS011;19946;49.306;11.350;2023-08-07T17:20:31;5.30;;;5.30;;
595;SDS011;19946;49.306;11.350;2023-08-07T17:23:32;4.90;;;4.90;;
595;SDS011;19946;49.306;11.350;2023-08-07T17:26:32;5.10;;;5.10;;
595;SDS011;19946;49.306;11.350;2023-08-07T17:29:32;4.67;;;4.67;;
595;SDS011;19946;49.306;11.350;2023-08-07T17:32:32;4.30;;;4.30;;
595;SDS011;19946;49.306;11.350;2023-08-07T17:35:33;5.50;;;5.50;;
595;SDS011;19946;49.306;11.350;2023-08-07T17:38:34;4.50;;;4.50;;
595;SDS011;19946;49.306;11.350;2023-08-07T17:41:34;4.20;;;4.20;;
595;SDS011;19946;49.306;11.350;2023-08-07T17:44:35;5.00;;;5.00;;
595;SDS011;19946;49.306;11.350;2023-08-07T17:47:35;5.30;;;5.30;;
595;SDS011;19946;49.306;11.350;2023-08-07T17:50:36;5.50;;;5.50;;
595;SDS011;19946;49.306;11.350;2023-08-07T17:53:36;6.00;;;5.90;;
595;SDS011;19946;49.306;11.350;2023-08-07T17:56:36;6.47;;;6.37;;
595;SDS011;19946;49.306;11.350;2023-08-07T17:59:36;4.77;;;4.77;;
595;SDS011;19946;49.306;11.350;2023-08-07T18:02:37;5.00;;;5.00;;
595;SDS011;19946;49.306;11.350;2023-08-07T18:05:37;5.10;;;5.10;;
595;SDS011;19946;49.306;11.350;2023-08-07T18:08:37;4.90;;;4.90;;
595;SDS011;19946;49.306;11.350;2023-08-07T18:11:38;4.80;;;4.80;;
595;SDS011;19946;49.306;11.350;2023-08-07T18:14:38;5.30;;;5.30;;
595;SDS011;19946;49.306;11.350;2023-08-07T18:17:39;6.00;;;5.90;;
595;SDS011;19946;49.306;11.350;2023-08-07T18:20:39;7.10;;;7.00;;
595;SDS011;19946;49.306;11.350;2023-08-07T18:23:39;6.57;;;6.47;;
595;SDS011;19946;49.306;11.350;2023-08-07T18:26:39;6.40;;;6.30;;
595;SDS011;19946;49.306;11.350;2023-08-07T18:29:40;7.80;;;7.70;;
595;SDS011;19946;49.306;11.350;2023-08-07T18:32:40;8.00;;;7.90;;